Time;durP1;ratioP1;P1;durP2;ratioP2;P2;SDS_P1;SDS_P2;PMS_P1;PMS_P2;Temp;Humidity;BMP_temperature;BMP_pressure;BME280_temperature;BME280_humidity;BME280_pressure;Samples;Min_cycle;Max_cycle;Signal;HPM_P1;HPM_P2
2021/09/17 04:45:40;;;;;;;13.10;7.82;;;;;;;12.66;81.76;99719.44;5004570;28;105895;-62
2021/09/17 04:48:08;;;;;;;10.90;7.90;;;;;;;12.71;81.83;99706.28;5004808;28;106265;-65
2021/09/17 04:50:33;;;;;;;11.82;8.55;;;;;;;12.78;82.32;99709.00;5003810;28;106363;-64
2021/09/17 04:52:59;;;;;;;13.18;8.80;;;;;;;12.88;82.68;99712.16;5002998;28;106996;-64
2021/09/17 04:55:24;;;;;;;12.45;7.95;;;;;;;13.00;82.64;99709.78;5004408;28;107790;-64
2021/09/17 04:57:49;;;;;;;13.43;7.78;;;;;;;13.10;82.53;99720.91;5004245;28;105931;-63
2021/09/17 05:00:15;;;;;;;14.13;7.32;;;;;;;13.23;82.46;99711.28;5004746;28;106161;-64
2021/09/17 05:02:40;;;;;;;12.18;7.97;;;;;;;13.34;82.43;99711.56;5004560;28;105924;-64
2021/09/17 05:05:06;;;;;;;12.65;8.50;;;;;;;13.42;82.43;99707.88;5004724;28;106381;-64
2021/09/17 05:07:34;;;;;;;13.20;8.32;;;;;;;13.50;82.52;99713.06;5005485;28;105852;-64
2021/09/17 05:10:00;;;;;;;13.90;8.00;;;;;;;13.62;82.34;99713.31;5005332;28;105995;-64
2021/09/17 05:12:25;;;;;;;12.00;7.28;;;;;;;13.71;82.26;99713.97;5004558;28;105677;-65
2021/09/17 05:14:50;;;;;;;10.65;7.32;;;;;;;13.81;82.04;99710.91;5004373;28;105824;-64
2021/09/17 05:17:16;;;;;;;10.45;7.63;;;;;;;13.93;82.30;99727.16;5004084;28;105940;-64
2021/09/17 05:19:41;;;;;;;10.68;7.95;;;;;;;14.00;82.08;99714.63;5005187;28;106118;-65
2021/09/17 05:22:06;;;;;;;9.52;7.05;;;;;;;14.09;81.97;99718.75;5003222;28;109021;-64
2021/09/17 05:24:32;;;;;;;9.30;7.07;;;;;;;14.20;81.78;99736.06;5004363;28;105940;-65
2021/09/17 05:26:57;;;;;;;12.88;7.28;;;;;;;14.29;81.71;99737.50;5005806;28;106079;-66
2021/09/17 05:29:23;;;;;;;9.57;7.30;;;;;;;14.38;81.68;99738.97;5004407;28;106324;-67
2021/09/17 05:31:48;;;;;;;11.32;7.03;;;;;;;14.48;81.55;99737.72;5003760;28;106858;-64
2021/09/17 05:34:13;;;;;;;12.93;6.95;;;;;;;14.59;81.35;99733.59;5004497;28;105905;-67
2021/09/17 05:36:39;;;;;;;9.35;6.60;;;;;;;14.68;81.17;99735.03;5005070;28;105996;-64
2021/09/17 05:39:05;;;;;;;11.00;7.15;;;;;;;14.76;81.28;99729.47;5004249;28;106522;-63
2021/09/17 05:41:30;;;;;;;12.45;11.02;;;;;;;14.85;81.16;99732.75;5003862;28;105983;-64
2021/09/17 05:43:55;;;;;;;19.88;12.20;;;;;;;14.93;81.03;99734.41;5002282;28;106016;-64
2021/09/17 05:46:21;;;;;;;12.50;7.78;;;;;;;15.01;80.80;99731.50;5004203;28;106349;-63
2021/09/17 05:48:46;;;;;;;11.50;7.53;;;;;;;15.08;80.68;99732.28;5003794;28;106178;-62
2021/09/17 05:51:11;;;;;;;12.02;7.70;;;;;;;15.20;80.80;99730.59;5003769;28;105922;-65
2021/09/17 05:53:37;;;;;;;12.32;7.00;;;;;;;15.33;80.69;99731.59;5003836;28;105900;-64
2021/09/17 05:56:02;;;;;;;10.68;7.05;;;;;;;15.43;80.39;99731.94;4996961;28;106424;-66
2021/09/17 05:58:31;;;;;;;11.82;7.75;;;;;;;15.51;80.13;99731.72;4991066;28;106186;-65
2021/09/17 06:00:57;;;;;;;10.27;6.72;;;;;;;15.55;79.60;99732.09;4990219;28;107243;-66
2021/09/17 06:03:22;;;;;;;13.00;8.10;;;;;;;15.58;79.29;99720.91;4990649;28;105965;-66
2021/09/17 06:05:48;;;;;;;11.10;8.55;;;;;;;15.61;79.39;99730.41;4990929;28;106215;-66
2021/09/17 06:08:13;;;;;;;11.00;8.43;;;;;;;15.63;79.20;99726.47;4990653;28;105963;-65
2021/09/17 06:10:38;;;;;;;12.20;7.72;;;;;;;15.66;78.92;99738.66;4990044;28;114656;-65
2021/09/17 06:13:03;;;;;;;15.82;10.55;;;;;;;15.65;78.92;99732.47;4989961;28;106197;-66
2021/09/17 06:15:29;;;;;;;15.88;11.18;;;;;;;15.69;79.00;99722.94;4990789;28;106266;-64
2021/09/17 06:17:54;;;;;;;13.45;8.07;;;;;;;15.74;78.84;99728.47;4989625;28;106154;-64
2021/09/17 06:20:20;;;;;;;10.23;7.00;;;;;;;15.76;78.69;99717.53;4989978;28;106693;-63
2021/09/17 06:22:45;;;;;;;11.63;7.78;;;;;;;15.75;78.65;99726.63;4990038;28;106044;-66
2021/09/17 06:25:14;;;;;;;12.90;7.95;;;;;;;15.74;78.46;99719.59;4991439;28;106190;-65
2021/09/17 06:27:40;;;;;;;12.07;7.38;;;;;;;15.72;78.34;99722.50;4990456;28;106294;-65
2021/09/17 06:30:06;;;;;;;13.70;8.05;;;;;;;15.68;78.22;99729.34;4990588;28;106616;-63
2021/09/17 06:32:31;;;;;;;11.13;7.60;;;;;;;15.68;78.14;99728.53;4990426;28;105992;-65
2021/09/17 06:34:58;;;;;;;10.02;7.20;;;;;;;15.69;78.07;99733.69;4991354;28;105845;-65
2021/09/17 06:37:24;;;;;;;10.82;7.68;;;;;;;15.72;78.13;99724.38;4990461;28;106258;-64
2021/09/17 06:39:49;;;;;;;10.85;7.47;;;;;;;15.74;77.86;99727.66;4990171;28;106016;-64
2021/09/17 06:42:14;;;;;;;14.80;7.15;;;;;;;15.76;77.96;99722.91;4990349;28;106041;-65
2021/09/17 06:44:40;;;;;;;11.93;8.70;;;;;;;15.77;77.85;99724.53;4990217;28;106196;-67
2021/09/17 06:47:05;;;;;;;11.43;8.50;;;;;;;15.80;77.59;99734.06;4990443;28;106155;-66
2021/09/17 06:49:31;;;;;;;10.77;7.80;;;;;;;15.81;77.86;99728.47;4990123;28;106068;-65
2021/09/17 06:51:56;;;;;;;11.63;7.70;;;;;;;15.83;77.61;99731.78;4990136;28;106013;-64
2021/09/17 06:54:21;;;;;;;11.30;7.82;;;;;;;15.87;77.59;99732.19;4990983;28;105961;-65
2021/09/17 06:56:47;;;;;;;10.95;7.57;;;;;;;15.89;77.25;99732.78;4990457;28;105776;-66
2021/09/17 06:59:12;;;;;;;9.95;7.68;;;;;;;15.94;77.18;99737.47;4989923;28;105774;-64
2021/09/17 07:01:37;;;;;;;10.32;7.75;;;;;;;15.96;77.01;99727.34;4989450;28;105969;-65
2021/09/17 07:04:03;;;;;;;10.98;8.65;;;;;;;15.96;76.82;99732.72;4990577;28;105953;-67
2021/09/17 07:06:32;;;;;;;11.77;8.75;;;;;;;15.97;77.12;99729.00;4989415;28;105811;-66
2021/09/17 07:08:58;;;;;;;14.07;8.90;;;;;;;16.00;76.83;99731.25;4986822;28;108715;-67
2021/09/17 07:11:24;;;;;;;15.02;9.02;;;;;;;16.06;76.86;99733.06;4989300;28;105882;-68
2021/09/17 07:13:49;;;;;;;11.88;8.50;;;;;;;16.08;76.73;99726.44;4989977;28;106041;-68
2021/09/17 07:16:15;;;;;;;13.82;8.95;;;;;;;16.10;76.66;99723.53;4989344;28;106199;-68
2021/09/17 07:18:40;;;;;;;11.45;8.50;;;;;;;16.08;76.33;99725.63;4989231;28;106041;-68
2021/09/17 07:21:06;;;;;;;13.73;8.55;;;;;;;16.06;76.50;99727.69;4989137;28;109202;-66
2021/09/17 07:23:31;;;;;;;15.48;9.75;;;;;;;16.05;76.40;99721.50;4989981;28;106047;-68
2021/09/17 07:25:57;;;;;;;14.30;9.82;;;;;;;16.06;76.36;99716.94;4989359;28;106138;-69
2021/09/17 07:28:22;;;;;;;12.95;9.27;;;;;;;16.11;76.25;99725.16;4989219;28;106692;-68
2021/09/17 07:30:47;;;;;;;12.68;9.38;;;;;;;16.14;76.13;99729.28;4989247;28;105866;-69
2021/09/17 07:33:13;;;;;;;14.15;9.15;;;;;;;16.18;75.68;99725.97;4989769;28;106138;-67
2021/09/17 07:35:39;;;;;;;17.05;10.27;;;;;;;16.19;76.01;99727.59;4989495;28;106246;-68
2021/09/17 07:38:04;;;;;;;13.85;9.23;;;;;;;16.17;75.80;99729.69;4987689;28;107039;-66
2021/09/17 07:40:30;;;;;;;12.52;9.57;;;;;;;16.13;75.56;99731.16;4988937;28;105850;-69
2021/09/17 07:42:56;;;;;;;14.98;9.98;;;;;;;16.11;75.82;99730.53;4989297;28;105819;-67
2021/09/17 07:45:23;;;;;;;15.82;8.20;;;;;;;16.08;75.44;99736.38;4987744;28;106458;-67
2021/09/17 07:47:49;;;;;;;12.73;8.93;;;;;;;16.08;75.75;99742.53;4988420;28;105995;-66
2021/09/17 07:50:15;;;;;;;10.90;8.27;;;;;;;16.08;75.52;99733.69;4988946;28;106254;-66
2021/09/17 07:52:41;;;;;;;16.33;11.63;;;;;;;16.07;75.45;99740.09;4989574;28;106088;-64
2021/09/17 07:55:08;;;;;;;12.95;8.45;;;;;;;16.12;75.51;99740.25;4988562;28;106170;-68
2021/09/17 07:57:33;;;;;;;10.10;7.80;;;;;;;16.18;75.03;99744.78;4985635;28;107190;-68
2021/09/17 07:59:58;;;;;;;11.63;8.25;;;;;;;16.23;75.13;99746.81;4987338;28;108365;-69
2021/09/17 08:02:24;;;;;;;14.02;7.57;;;;;;;16.29;75.29;99747.78;4986758;28;106098;-66
2021/09/17 08:04:49;;;;;;;10.52;7.80;;;;;;;16.32;75.20;99741.97;4987626;28;106778;-65
2021/09/17 08:07:15;;;;;;;13.80;7.43;;;;;;;16.40;75.08;99744.38;4987368;28;106785;-68
2021/09/17 08:09:40;;;;;;;9.57;6.07;;;;;;;16.45;74.65;99747.25;4986796;28;106426;-68
2021/09/17 08:12:06;;;;;;;11.32;7.18;;;;;;;16.45;74.65;99749.13;4988451;28;106078;-69
2021/09/17 08:14:32;;;;;;;10.57;7.15;;;;;;;16.44;74.44;99750.97;4986905;28;107065;-67
2021/09/17 08:16:57;;;;;;;10.13;6.65;;;;;;;16.43;74.19;99749.34;4986951;28;106119;-67
2021/09/17 08:19:22;;;;;;;11.32;7.28;;;;;;;16.40;74.19;99744.38;4986474;28;106783;-66
2021/09/17 08:21:48;;;;;;;10.45;6.82;;;;;;;16.38;73.84;99743.78;4987406;28;106114;-69
2021/09/17 08:24:15;;;;;;;9.05;6.38;;;;;;;16.43;74.28;99743.97;4987382;28;106157;-67
2021/09/17 08:26:43;;;;;;;9.68;6.38;;;;;;;16.45;73.94;99747.25;4986366;28;106330;-66
2021/09/17 08:29:08;;;;;;;8.68;6.03;;;;;;;16.50;73.95;99739.34;4985552;28;106050;-67
2021/09/17 08:31:34;;;;;;;8.23;6.82;;;;;;;16.57;74.08;99750.84;4986564;28;106158;-67
2021/09/17 08:33:59;;;;;;;7.50;6.13;;;;;;;16.76;74.06;99742.84;4970413;28;107004;-67
2021/09/17 08:36:24;;;;;;;14.05;11.32;;;;;;;17.05;74.21;99737.81;4970559;28;109617;-68
2021/09/17 08:38:50;;;;;;;13.13;8.00;;;;;;;17.25;73.61;99738.41;4967639;28;106357;-68
2021/09/17 08:41:16;;;;;;;8.13;5.80;;;;;;;17.33;73.22;99736.44;4968794;28;106023;-67
2021/09/17 08:43:43;;;;;;;8.02;6.65;;;;;;;17.43;73.26;99740.25;4968065;28;106512;-68
2021/09/17 08:46:15;;;;;;;8.93;6.35;;;;;;;17.70;72.97;99736.38;4967898;28;106082;-67
2021/09/17 08:48:41;;;;;;;7.07;6.03;;;;;;;18.02;72.14;99737.00;4967765;28;106372;-67
2021/09/17 08:51:08;;;;;;;6.22;5.43;;;;;;;18.20;71.67;99741.47;4966398;28;105992;-68
2021/09/17 08:53:33;;;;;;;7.30;5.20;;;;;;;18.38;70.67;99742.44;4967311;28;106044;-69
2021/09/17 08:55:59;;;;;;;8.40;4.82;;;;;;;18.56;71.14;99744.22;4967607;28;105994;-68
2021/09/17 08:58:24;;;;;;;10.10;4.75;;;;;;;18.73;70.72;99745.16;4967033;28;106287;-67
2021/09/17 09:00:50;;;;;;;6.82;4.82;;;;;;;18.93;70.09;99746.69;4967627;28;105977;-68
2021/09/17 09:03:34;;;;;;;5.68;4.63;;;;;;;19.28;69.36;99740.44;4967801;28;106400;-68
2021/09/17 09:06:12;;;;;;;5.22;4.28;;;;;;;19.64;68.83;99743.00;4966948;28;106435;-68
2021/09/17 09:08:40;;;;;;;7.03;4.65;;;;;;;19.96;68.51;99743.38;4967218;28;106005;-68
2021/09/17 09:11:25;;;;;;;5.25;4.00;;;;;;;20.03;66.73;99735.91;4968184;28;105959;-67
2021/09/17 09:14:06;;;;;;;5.78;4.10;;;;;;;20.14;66.74;99731.50;4967700;28;106311;-68
2021/09/17 09:16:34;;;;;;;5.90;3.92;;;;;;;20.33;65.68;99731.28;4966224;28;106304;-66
2021/09/17 09:19:37;;;;;;;4.80;3.47;;;;;;;20.33;64.89;99739.41;4965100;28;106055;-67
2021/09/17 09:22:02;;;;;;;6.75;3.45;;;;;;;20.53;64.75;99739.72;4964266;28;106196;-67
2021/09/17 09:24:29;;;;;;;4.43;3.33;;;;;;;20.60;64.15;99728.72;4964831;28;106192;-67
2021/09/17 09:27:14;;;;;;;5.88;5.03;;;;;;;20.75;63.93;99725.44;4965030;28;106370;-67
2021/09/17 09:29:43;;;;;;;22.38;13.48;;;;;;;20.89;63.16;99737.56;4964732;28;106354;-68
2021/09/17 09:32:31;;;;;;;5.30;3.38;;;;;;;21.30;63.83;99727.25;4970290;28;106120;-66
2021/09/17 09:35:02;;;;;;;5.88;3.40;;;;;;;22.09;62.73;99724.25;4970736;28;106228;-61
2021/09/17 09:37:33;;;;;;;6.10;2.88;;;;;;;22.77;60.11;99718.28;4970390;28;105942;-67
2021/09/17 09:40:01;;;;;;;4.43;2.30;;;;;;;23.05;58.74;99710.84;4970213;28;105842;-64
2021/09/17 09:42:38;;;;;;;5.25;2.47;;;;;;;22.86;56.25;99719.41;4970997;28;105956;-63
2021/09/17 09:45:11;;;;;;;4.47;2.45;;;;;;;22.56;57.10;99720.88;4970544;28;106034;-66
2021/09/17 09:47:38;;;;;;;4.70;3.17;;;;;;;22.61;57.09;99717.38;4970392;28;105762;-65
2021/09/17 09:50:05;;;;;;;6.13;2.90;;;;;;;22.67;56.90;99710.09;4970342;28;106187;-66
2021/09/17 09:52:31;;;;;;;6.88;3.33;;;;;;;22.64;56.03;99719.56;4970829;28;106071;-63
2021/09/17 09:54:56;;;;;;;4.60;3.30;;;;;;;22.61;55.36;99726.34;4970557;28;106226;-66
2021/09/17 09:57:22;;;;;;;4.53;3.17;;;;;;;22.41;53.85;99718.88;4970597;28;105972;-66
2021/09/17 09:59:52;;;;;;;6.07;3.05;;;;;;;22.07;54.88;99715.59;4970311;28;106274;-65
2021/09/17 10:02:18;;;;;;;4.78;2.88;;;;;;;21.85;54.99;99721.88;4971111;28;106635;-63
2021/09/17 10:04:44;;;;;;;2.97;2.28;;;;;;;21.57;54.57;99715.66;4987626;28;106043;-63
2021/09/17 10:07:10;;;;;;;3.53;2.55;;;;;;;21.33;55.03;99727.81;4990172;28;106083;-64
2021/09/17 10:09:38;;;;;;;4.45;2.70;;;;;;;21.35;55.10;99722.94;4989801;28;106626;-62
2021/09/17 10:12:09;;;;;;;5.65;2.60;;;;;;;21.37;55.29;99720.81;4988986;28;105832;-66
2021/09/17 10:14:35;;;;;;;3.70;2.30;;;;;;;21.33;55.01;99715.09;4989836;28;106229;-64
2021/09/17 10:17:06;;;;;;;3.40;2.25;;;;;;;21.27;54.84;99719.63;4989781;28;105841;-64
2021/09/17 10:19:32;;;;;;;2.83;1.90;;;;;;;21.23;54.89;99715.78;4989969;28;106098;-67
2021/09/17 10:21:59;;;;;;;4.93;2.30;;;;;;;21.34;55.04;99705.06;4990702;28;106075;-66
2021/09/17 10:24:25;;;;;;;3.22;1.80;;;;;;;21.33;54.19;99711.56;4989463;28;106249;-65
2021/09/17 10:27:05;;;;;;;2.47;1.88;;;;;;;21.36;54.18;99703.72;4989329;28;106807;-65
2021/09/17 10:29:36;;;;;;;2.88;1.48;;;;;;;21.21;53.70;99709.78;4988958;28;105841;-65
2021/09/17 10:32:06;;;;;;;2.92;1.60;;;;;;;21.10;53.98;99708.88;4989720;28;106763;-65
2021/09/17 10:34:41;;;;;;;;;;;;;;;21.14;53.99;99706.47;4989670;28;105945;-64
2021/09/17 10:37:07;;;;;;;10.30;4.68;;;;;;;20.96;54.06;99705.69;4989521;28;106801;-66
2021/09/17 10:39:33;;;;;;;3.78;1.85;;;;;;;20.76;54.21;99705.41;4989273;28;106175;-65
2021/09/17 10:42:14;;;;;;;2.58;1.30;;;;;;;20.60;54.20;99698.97;4989744;28;106136;-65
2021/09/17 10:45:01;;;;;;;2.35;1.40;;;;;;;20.45;54.40;99703.06;4989310;28;106073;-64
2021/09/17 10:47:44;;;;;;;2.30;1.48;;;;;;;20.45;54.13;99696.84;4986248;28;106411;-65
2021/09/17 10:50:12;;;;;;;2.60;1.50;;;;;;;20.46;54.44;99701.16;4977342;28;106089;-65
2021/09/17 10:52:40;;;;;;;2.90;1.58;;;;;;;20.53;54.20;99696.44;4976903;28;106064;-65
2021/09/17 10:55:08;;;;;;;2.85;1.70;;;;;;;20.49;53.96;99700.69;4989143;28;106271;-66
2021/09/17 10:58:11;;;;;;;4.30;1.67;;;;;;;20.44;53.86;99703.31;4987193;28;107110;-64
2021/09/17 11:00:58;;;;;;;4.57;2.28;;;;;;;20.43;54.27;99704.38;4988606;28;106068;-65
2021/09/17 11:03:38;;;;;;;4.70;4.03;;;;;;;20.41;53.98;99695.72;4990370;28;105931;-64
2021/09/17 11:06:26;;;;;;;;;;;;;;;20.37;54.22;99700.78;4988229;28;106101;-64
2021/09/17 11:09:00;;;;;;;2.47;1.60;;;;;;;20.34;54.10;99704.00;4988178;28;106001;-62
2021/09/17 11:11:40;;;;;;;3.83;1.90;;;;;;;20.22;54.36;99701.34;4987852;28;105969;-63
2021/09/17 11:14:08;;;;;;;2.50;1.70;;;;;;;20.06;54.20;99702.97;4989450;28;106106;-64
2021/09/17 11:16:34;;;;;;;3.33;2.00;;;;;;;19.91;54.53;99706.25;4988708;28;106753;-64
2021/09/17 11:19:04;;;;;;;5.68;2.00;;;;;;;19.79;54.69;99697.34;4989038;28;106118;-64
2021/09/17 11:21:42;;;;;;;5.10;2.10;;;;;;;19.70;54.83;99698.81;4988568;28;105930;-62
2021/09/17 11:24:18;;;;;;;14.20;12.73;;;;;;;19.53;55.04;99696.91;4989856;28;106632;-63
2021/09/17 11:26:46;;;;;;;29.52;20.90;;;;;;;19.38;55.41;99697.44;4988377;28;106176;-63
2021/09/17 11:29:14;;;;;;;6.57;3.80;;;;;;;19.22;55.72;99696.31;4988332;28;106398;-65
2021/09/17 11:31:46;;;;;;;3.90;2.47;;;;;;;19.09;56.17;99691.16;4988190;28;106450;-64
2021/09/17 11:34:14;;;;;;;3.53;2.30;;;;;;;19.00;56.76;99704.22;4989358;28;105981;-64
2021/09/17 11:36:44;;;;;;;4.18;2.20;;;;;;;18.85;56.84;99698.44;4988568;28;106152;-63
2021/09/17 11:39:19;;;;;;;4.65;2.47;;;;;;;18.66;57.16;99703.16;4988282;28;105962;-64
2021/09/17 11:41:47;;;;;;;4.28;2.60;;;;;;;18.54;57.82;99701.28;4988176;28;106217;-66
2021/09/17 11:44:31;;;;;;;5.25;2.75;;;;;;;18.39;58.18;99701.75;4988433;28;106085;-65
2021/09/17 11:46:57;;;;;;;5.10;2.80;;;;;;;18.32;58.81;99705.66;4988877;28;106333;-65
2021/09/17 11:49:30;;;;;;;5.18;3.13;;;;;;;18.34;59.46;99703.53;4988307;28;106807;-65
2021/09/17 11:51:57;;;;;;;5.97;3.22;;;;;;;18.39;59.73;99701.75;4988680;28;105907;-65
2021/09/17 11:54:23;;;;;;;4.45;2.95;;;;;;;18.47;59.99;99702.50;4988517;28;105821;-64
2021/09/17 11:57:03;;;;;;;7.22;3.72;;;;;;;18.54;60.43;99704.00;4988478;28;105669;-64
2021/09/17 11:59:36;;;;;;;3.38;2.45;;;;;;;18.61;60.44;99706.56;4987887;28;106722;-64
2021/09/17 12:02:14;;;;;;;4.45;3.22;;;;;;;18.67;60.73;99699.41;4988284;28;106076;-64
2021/09/17 12:04:41;;;;;;;4.47;3.28;;;;;;;18.80;60.83;99701.06;4988472;28;106616;-67
2021/09/17 12:07:09;;;;;;;4.65;3.00;;;;;;;18.89;60.85;99692.41;4988826;28;106112;-66
2021/09/17 12:09:34;;;;;;;4.00;2.70;;;;;;;19.02;60.89;99702.09;4988189;28;106633;-66
2021/09/17 12:12:00;;;;;;;5.00;2.80;;;;;;;19.20;60.93;99698.41;4987950;28;105836;-65
2021/09/17 12:14:25;;;;;;;4.28;2.33;;;;;;;19.38;60.59;99702.84;4988690;28;106031;-65
2021/09/17 12:16:51;;;;;;;4.40;3.20;;;;;;;19.54;60.33;99709.34;4988259;28;105748;-65
2021/09/17 12:19:17;;;;;;;4.60;3.50;;;;;;;19.78;60.21;99707.34;4987035;28;106420;-66
2021/09/17 12:21:42;;;;;;;4.25;2.03;;;;;;;20.00;59.88;99703.13;4987795;28;107240;-67
2021/09/17 12:24:22;;;;;;;4.72;1.88;;;;;;;20.20;59.62;99703.50;4988948;28;105975;-66
2021/09/17 12:26:56;;;;;;;3.10;1.80;;;;;;;20.28;58.82;99700.38;4988170;28;106145;-66
2021/09/17 12:29:23;;;;;;;3.67;1.67;;;;;;;20.23;58.34;99703.00;4988211;28;106597;-66
2021/09/17 12:31:48;;;;;;;3.45;1.52;;;;;;;20.03;58.45;99713.47;4988050;28;106643;-66
2021/09/17 12:34:20;;;;;;;4.28;2.03;;;;;;;19.89;57.96;99708.38;4988585;28;106018;-67
2021/09/17 12:36:55;;;;;;;3.65;1.92;;;;;;;19.64;58.11;99716.00;4987746;28;107062;-66
2021/09/17 12:39:30;;;;;;;3.63;1.63;;;;;;;19.46;58.47;99712.41;4988001;28;106027;-66
2021/09/17 12:42:09;;;;;;;4.55;1.98;;;;;;;19.28;58.46;99716.13;4987966;28;106971;-64
2021/09/17 13:51:08;;;;;;;4.50;1.90;;;;;;;17.54;63.89;99719.81;5007840;28;106264;-66
2021/09/17 13:53:33;;;;;;;5.57;1.85;;;;;;;17.89;64.38;99718.28;5015707;28;105878;-67
2021/09/17 13:55:59;;;;;;;3.78;2.05;;;;;;;18.41;64.54;99713.16;5010453;27;106314;-66
2021/09/17 13:58:25;;;;;;;4.18;1.70;;;;;;;18.89;64.16;99705.88;5013069;28;106558;-67
2021/09/17 14:00:51;;;;;;;4.28;2.33;;;;;;;19.13;62.97;99705.81;5009333;28;106131;-66
2021/09/17 14:03:17;;;;;;;2.45;1.30;;;;;;;19.04;62.21;99705.41;5016725;27;105878;-66
2021/09/17 14:05:43;;;;;;;3.95;1.40;;;;;;;18.67;61.80;99702.94;5011566;28;106381;-66
2021/09/17 14:08:08;;;;;;;2.20;1.25;;;;;;;18.33;62.06;99707.25;5020533;28;106588;-66
2021/09/17 14:10:34;;;;;;;2.58;1.27;;;;;;;18.16;62.15;99704.44;5007458;27;105917;-68
2021/09/17 14:13:00;;;;;;;2.60;1.20;;;;;;;18.18;63.00;99703.16;5018633;27;106086;-66
2021/09/17 14:15:25;;;;;;;8.88;6.68;;;;;;;18.26;62.81;99701.97;5014443;28;106042;-67
2021/09/17 14:17:50;;;;;;;2.15;1.20;;;;;;;18.24;62.41;99699.53;5010978;27;106608;-67
2021/09/17 14:20:16;;;;;;;3.95;1.52;;;;;;;18.22;62.44;99700.81;5020381;28;106536;-66
2021/09/17 14:22:42;;;;;;;2.33;1.38;;;;;;;18.21;62.73;99700.00;5007644;28;105961;-67
2021/09/17 14:25:08;;;;;;;3.60;1.95;;;;;;;18.33;62.85;99707.25;5017447;27;106188;-67
2021/09/17 14:27:34;;;;;;;1.73;1.23;;;;;;;18.33;62.52;99704.56;5015187;28;105909;-67
2021/09/17 14:29:59;;;;;;;2.97;1.27;;;;;;;18.34;62.82;99704.31;5009633;27;106055;-68
2021/09/17 14:32:24;;;;;;;2.58;1.20;;;;;;;18.40;62.82;99698.03;5021285;28;106317;-67
2021/09/17 14:34:50;;;;;;;2.10;1.38;;;;;;;18.52;62.63;99698.03;5007786;28;106109;-67
2021/09/17 14:37:16;;;;;;;4.40;1.45;;;;;;;18.52;62.10;99695.34;5015298;27;105951;-67
2021/09/17 14:39:41;;;;;;;3.42;1.27;;;;;;;18.51;62.24;99698.28;5015681;28;106022;-66
2021/09/17 14:42:07;;;;;;;1.60;1.27;;;;;;;18.39;62.20;99698.25;5009538;27;105955;-67
2021/09/17 14:44:32;;;;;;;2.38;1.23;;;;;;;18.27;62.23;99704.47;5020910;28;106113;-66
2021/09/17 14:46:57;;;;;;;1.65;1.30;;;;;;;18.17;62.53;99704.22;5009832;28;106383;-68
2021/09/17 14:49:23;;;;;;;4.63;1.48;;;;;;;18.11;62.87;99699.72;5014028;27;106564;-67
2021/09/17 14:51:48;;;;;;;2.95;1.42;;;;;;;18.09;62.75;99696.47;5017869;28;106046;-67
2021/09/17 14:54:13;;;;;;;11.45;7.50;;;;;;;18.01;62.86;99707.56;5008028;27;106362;-66
2021/09/17 14:56:39;;;;;;;9.25;6.60;;;;;;;17.96;62.99;99697.50;5020272;28;107044;-67
2021/09/17 14:59:06;;;;;;;4.47;1.30;;;;;;;17.91;62.95;99692.78;5011060;28;105826;-67
2021/09/17 15:01:39;;;;;;;1.10;0.90;;;;;;;17.84;62.95;99693.94;5005917;27;105918;-67
2021/09/17 15:04:05;;;;;;;1.67;0.93;;;;;;;17.76;62.90;99687.78;5006188;28;106452;-67
2021/09/17 15:06:32;;;;;;;2.13;1.20;;;;;;;17.71;62.77;99684.97;4991956;28;106045;-68
2021/09/17 15:08:57;;;;;;;1.48;1.10;;;;;;;17.64;62.61;99696.91;4990446;28;105902;-66
2021/09/17 15:11:22;;;;;;;3.78;1.10;;;;;;;17.60;62.56;99699.22;4991091;28;106031;-66
2021/09/17 15:13:48;;;;;;;1.83;1.30;;;;;;;17.57;62.64;99700.50;4990391;28;106246;-66
2021/09/17 15:16:14;;;;;;;2.63;1.15;;;;;;;17.55;62.44;99694.53;4990680;28;106295;-66
2021/09/17 15:18:39;;;;;;;3.10;1.17;;;;;;;17.50;62.56;99701.66;4990822;28;105687;-67
2021/09/17 15:21:05;;;;;;;1.20;1.02;;;;;;;17.45;62.60;99702.31;4991595;28;105889;-64
2021/09/17 15:23:30;;;;;;;1.67;1.17;;;;;;;17.38;62.43;99702.41;4991022;28;106200;-65
2021/09/17 15:25:56;;;;;;;1.65;1.10;;;;;;;17.34;62.27;99689.63;4990426;28;106243;-61
2021/09/17 15:28:21;;;;;;;2.53;1.10;;;;;;;17.26;62.46;99696.13;4990439;28;105947;-64
2021/09/17 15:30:50;;;;;;;2.00;1.23;;;;;;;17.20;62.63;99697.88;4991288;28;105919;-67
2021/09/17 15:33:16;;;;;;;3.13;1.10;;;;;;;17.14;62.42;99695.25;4990558;28;106136;-65
2021/09/17 15:35:42;;;;;;;3.28;1.50;;;;;;;17.08;62.92;99697.78;4989724;28;106197;-66
2021/09/17 15:38:07;;;;;;;1.67;1.23;;;;;;;17.04;62.70;99691.22;4990114;28;106081;-66
2021/09/17 15:40:32;;;;;;;2.53;1.20;;;;;;;16.99;62.55;99695.63;5007231;28;106119;-64
2021/09/17 15:42:58;;;;;;;2.00;1.15;;;;;;;16.95;62.44;99687.22;5004807;28;106608;-66
2021/09/17 15:45:23;;;;;;;4.95;1.30;;;;;;;16.89;62.80;99688.94;4989470;28;106811;-63
2021/09/17 15:47:49;;;;;;;5.07;1.50;;;;;;;16.88;62.67;99697.16;4989623;28;105855;-62
2021/09/17 15:50:15;;;;;;;6.80;1.50;;;;;;;16.89;62.93;99690.78;4990208;28;106150;-66
2021/09/17 15:52:41;;;;;;;2.95;1.40;;;;;;;16.88;62.67;99686.41;4989355;28;106109;-66
2021/09/17 15:55:08;;;;;;;1.58;1.30;;;;;;;16.84;62.79;99691.44;4989954;28;105970;-66
2021/09/17 15:57:35;;;;;;;2.63;1.48;;;;;;;16.84;62.82;99702.19;4989833;28;105919;-63
2021/09/17 16:00:02;;;;;;;4.68;1.70;;;;;;;16.84;62.98;99701.34;4990453;28;106052;-66
2021/09/17 16:02:27;;;;;;;4.45;1.40;;;;;;;16.79;62.86;99704.72;4992111;28;106489;-66
2021/09/17 16:04:53;;;;;;;1.85;1.00;;;;;;;16.71;62.73;99702.31;5004132;28;107102;-67
2021/09/17 16:07:18;;;;;;;1.80;1.00;;;;;;;16.63;62.89;99710.69;4989417;28;105819;-67
2021/09/17 16:09:43;;;;;;;2.65;1.70;;;;;;;16.55;62.47;99704.56;4990003;28;105818;-63
2021/09/17 16:12:11;;;;;;;2.83;1.00;;;;;;;16.50;62.81;99712.47;4989340;28;105920;-65
2021/09/17 16:14:37;;;;;;;2.30;1.00;;;;;;;16.46;62.31;99721.16;4988812;28;106926;-66
2021/09/17 16:17:03;;;;;;;2.03;0.95;;;;;;;16.36;62.54;99714.44;4987874;28;106017;-65
2021/09/17 16:19:28;;;;;;;1.77;1.10;;;;;;;16.29;62.74;99726.28;4990126;28;105994;-64
2021/09/17 16:21:54;;;;;;;2.55;1.40;;;;;;;16.21;62.82;99720.16;4989645;28;106120;-64
2021/09/17 16:24:19;;;;;;;3.10;1.10;;;;;;;16.16;63.05;99722.66;4989134;28;105920;-62
2021/09/17 16:26:45;;;;;;;1.95;1.20;;;;;;;16.06;63.09;99733.06;4988808;28;105967;-65
2021/09/17 16:29:10;;;;;;;4.20;1.42;;;;;;;15.98;63.45;99725.25;4989548;28;106037;-62
2021/09/17 16:31:38;;;;;;;3.58;2.10;;;;;;;15.90;63.88;99723.69;4989215;28;106302;-63
2021/09/17 16:34:05;;;;;;;2.53;1.40;;;;;;;15.85;64.10;99729.69;4988536;28;105837;-65
2021/09/17 16:36:31;;;;;;;2.53;1.83;;;;;;;15.79;64.18;99727.84;4988499;28;106043;-64
2021/09/17 16:38:57;;;;;;;4.35;2.40;;;;;;;15.72;64.23;99733.25;4989559;28;106027;-65
2021/09/17 16:41:22;;;;;;;6.13;2.00;;;;;;;15.66;64.51;99739.47;4989429;28;106560;-66
2021/09/17 16:43:47;;;;;;;2.88;2.03;;;;;;;15.60;64.50;99734.97;4989045;28;106374;-66
2021/09/17 16:46:13;;;;;;;5.22;2.17;;;;;;;15.55;65.07;99738.31;4989001;28;106847;-63
2021/09/17 16:48:38;;;;;;;3.80;1.60;;;;;;;15.52;65.00;99744.09;4989820;28;106151;-64
2021/09/17 16:51:04;;;;;;;4.95;2.03;;;;;;;15.47;65.38;99735.84;4988913;28;106244;-66
2021/09/17 16:53:30;;;;;;;2.90;1.90;;;;;;;15.43;65.30;99742.66;4988556;28;105996;-66
2021/09/17 16:55:56;;;;;;;4.78;1.80;;;;;;;15.42;65.53;99734.84;4988998;28;105936;-63
2021/09/17 16:58:21;;;;;;;3.00;1.98;;;;;;;15.41;65.96;99742.06;4989545;28;106023;-65
2021/09/17 17:00:46;;;;;;;3.28;1.83;;;;;;;15.42;66.04;99740.22;4989014;28;106123;-63
2021/09/17 17:03:12;;;;;;;4.30;2.10;;;;;;;15.44;66.28;99741.66;4988780;28;105799;-67
2021/09/17 17:05:37;;;;;;;2.58;1.83;;;;;;;15.45;66.01;99740.63;4988946;28;108563;-63
2021/09/17 17:08:03;;;;;;;2.83;1.80;;;;;;;15.43;66.31;99740.00;4989681;28;105685;-66
2021/09/17 17:10:28;;;;;;;4.88;2.10;;;;;;;15.42;66.16;99732.16;4988443;28;105983;-66
2021/09/17 17:12:54;;;;;;;3.97;1.92;;;;;;;15.40;66.29;99737.75;4988063;28;106140;-65
2021/09/17 17:15:20;;;;;;;5.03;1.75;;;;;;;15.37;66.69;99738.19;4988343;28;106749;-67